sensor_id;sensor_type;location;lat;lon;timestamp;pressure;altitude;pressure_sealevel;temperature;humidity
37068;BME280;22982;42.848;25.468;2023-04-06T00:02:04;95847.31;;;2.58;100.00
37068;BME280;22982;42.848;25.468;2023-04-06T00:07:13;95876.03;;;2.75;100.00
37068;BME280;22982;42.848;25.468;2023-04-06T00:12:21;95897.44;;;3.04;99.34
37068;BME280;22982;42.848;25.468;2023-04-06T00:17:24;95876.50;;;2.86;97.97
37068;BME280;22982;42.848;25.468;2023-04-06T00:22:31;95847.84;;;2.67;97.54
37068;BME280;22982;42.848;25.468;2023-04-06T00:27:33;95868.31;;;2.74;98.23
37068;BME280;22982;42.848;25.468;2023-04-06T00:32:54;95865.75;;;2.74;99.22
37068;BME280;22982;42.848;25.468;2023-04-06T00:37:59;95866.09;;;2.88;97.76
37068;BME280;22982;42.848;25.468;2023-04-06T00:43:16;95865.69;;;2.75;97.83
37068;BME280;22982;42.848;25.468;2023-04-06T00:48:27;95846.88;;;2.70;98.83
37068;BME280;22982;42.848;25.468;2023-04-06T00:53:30;95872.31;;;2.59;99.10
37068;BME280;22982;42.848;25.468;2023-04-06T00:58:38;95851.25;;;2.44;98.76
37068;BME280;22982;42.848;25.468;2023-04-06T01:03:45;95828.22;;;2.37;100.00
37068;BME280;22982;42.848;25.468;2023-04-06T01:08:58;95836.16;;;2.32;99.64
37068;BME280;22982;42.848;25.468;2023-04-06T01:14:05;95849.66;;;2.15;100.00
37068;BME280;22982;42.848;25.468;2023-04-06T01:19:28;95809.41;;;1.81;99.66
37068;BME280;22982;42.848;25.468;2023-04-06T01:24:35;95815.53;;;2.04;100.00
37068;BME280;22982;42.848;25.468;2023-04-06T01:29:56;95836.53;;;1.68;100.00
37068;BME280;22982;42.848;25.468;2023-04-06T01:36:09;95808.81;;;1.46;100.00
37068;BME280;22982;42.848;25.468;2023-04-06T01:41:06;95808.22;;;1.10;100.00
37068;BME280;22982;42.848;25.468;2023-04-06T01:46:20;95823.16;;;1.00;100.00
37068;BME280;22982;42.848;25.468;2023-04-06T01:51:28;95808.59;;;0.98;100.00
37068;BME280;22982;42.848;25.468;2023-04-06T01:56:41;95815.31;;;1.03;100.00
37068;BME280;22982;42.848;25.468;2023-04-06T02:02:15;95819.16;;;1.18;100.00
37068;BME280;22982;42.848;25.468;2023-04-06T02:07:30;95798.38;;;0.94;100.00
37068;BME280;22982;42.848;25.468;2023-04-06T02:13:02;95773.16;;;0.74;100.00
37068;BME280;22982;42.848;25.468;2023-04-06T02:18:44;95753.78;;;0.60;100.00
37068;BME280;22982;42.848;25.468;2023-04-06T02:23:56;95779.59;;;0.60;100.00
37068;BME280;22982;42.848;25.468;2023-04-06T02:29:01;95788.25;;;0.59;100.00
37068;BME280;22982;42.848;25.468;2023-04-06T02:34:07;95789.72;;;0.36;100.00
37068;BME280;22982;42.848;25.468;2023-04-06T02:39:18;95808.81;;;0.29;100.00
37068;BME280;22982;42.848;25.468;2023-04-06T02:44:24;95776.28;;;0.25;100.00
37068;BME280;22982;42.848;25.468;2023-04-06T02:49:33;95799.88;;;0.42;100.00
37068;BME280;22982;42.848;25.468;2023-04-06T02:54:37;95816.06;;;0.47;100.00
37068;BME280;22982;42.848;25.468;2023-04-06T02:59:42;95794.41;;;0.22;100.00
37068;BME280;22982;42.848;25.468;2023-04-06T03:04:53;95801.47;;;0.15;100.00
37068;BME280;22982;42.848;25.468;2023-04-06T03:10:09;95803.84;;;0.23;100.00
37068;BME280;22982;42.848;25.468;2023-04-06T03:15:14;95797.00;;;-0.11;100.00
37068;BME280;22982;42.848;25.468;2023-04-06T03:20:28;95773.00;;;-0.13;100.00
37068;BME280;22982;42.848;25.468;2023-04-06T03:25:33;95759.22;;;-0.11;100.00
37068;BME280;22982;42.848;25.468;2023-04-06T03:30:44;95795.41;;;-0.15;100.00
37068;BME280;22982;42.848;25.468;2023-04-06T03:35:53;95797.56;;;-0.33;100.00
37068;BME280;22982;42.848;25.468;2023-04-06T03:41:12;95825.84;;;0.03;100.00
37068;BME280;22982;42.848;25.468;2023-04-06T03:46:25;95794.38;;;-0.10;100.00
37068;BME280;22982;42.848;25.468;2023-04-06T03:52:03;95811.06;;;0.10;100.00
37068;BME280;22982;42.848;25.468;2023-04-06T03:57:12;95837.09;;;0.01;100.00
37068;BME280;22982;42.848;25.468;2023-04-06T04:02:18;95826.91;;;-0.06;100.00
37068;BME280;22982;42.848;25.468;2023-04-06T04:07:30;95786.31;;;-0.29;100.00
37068;BME280;22982;42.848;25.468;2023-04-06T04:12:37;95809.53;;;0.03;100.00
37068;BME280;22982;42.848;25.468;2023-04-06T04:17:48;95780.38;;;0.01;100.00
37068;BME280;22982;42.848;25.468;2023-04-06T04:22:52;95816.72;;;0.54;100.00
37068;BME280;22982;42.848;25.468;2023-04-06T04:27:58;95751.16;;;0.33;100.00
37068;BME280;22982;42.848;25.468;2023-04-06T04:33:04;95782.53;;;0.77;100.00
37068;BME280;22982;42.848;25.468;2023-04-06T04:38:21;95789.75;;;0.66;100.00
37068;BME280;22982;42.848;25.468;2023-04-06T04:43:50;95808.84;;;1.18;100.00
37068;BME280;22982;42.848;25.468;2023-04-06T04:49:03;95761.94;;;1.32;100.00
37068;BME280;22982;42.848;25.468;2023-04-06T04:54:17;95763.94;;;1.22;100.00
37068;BME280;22982;42.848;25.468;2023-04-06T04:59:25;95805.53;;;1.68;100.00
37068;BME280;22982;42.848;25.468;2023-04-06T05:04:41;95804.28;;;1.53;100.00
37068;BME280;22982;42.848;25.468;2023-04-06T05:10:10;95820.69;;;1.79;100.00
37068;BME280;22982;42.848;25.468;2023-04-06T05:15:24;95774.91;;;2.07;100.00
37068;BME280;22982;42.848;25.468;2023-04-06T05:20:36;95809.94;;;2.41;100.00
37068;BME280;22982;42.848;25.468;2023-04-06T05:25:43;95811.31;;;2.99;100.00
37068;BME280;22982;42.848;25.468;2023-04-06T05:31:02;95786.59;;;2.43;100.00
37068;BME280;22982;42.848;25.468;2023-04-06T05:36:13;95784.69;;;3.39;100.00
37068;BME280;22982;42.848;25.468;2023-04-06T05:41:34;95777.63;;;4.27;91.38
37068;BME280;22982;42.848;25.468;2023-04-06T05:46:43;95789.34;;;5.32;83.43
37068;BME280;22982;42.848;25.468;2023-04-06T05:51:58;95711.16;;;8.84;62.09
37068;BME280;22982;42.848;25.468;2023-04-06T05:57:08;95749.09;;;11.63;48.33
37068;BME280;22982;42.848;25.468;2023-04-06T06:02:16;95759.03;;;6.37;67.77
37068;BME280;22982;42.848;25.468;2023-04-06T06:07:23;95779.00;;;5.67;70.99
37068;BME280;22982;42.848;25.468;2023-04-06T06:12:35;95767.00;;;5.28;76.54
37068;BME280;22982;42.848;25.468;2023-04-06T06:17:48;95737.41;;;4.75;79.63
37068;BME280;22982;42.848;25.468;2023-04-06T06:22:55;95720.78;;;4.01;82.84
37068;BME280;22982;42.848;25.468;2023-04-06T06:28:10;95718.16;;;4.98;79.56
37068;BME280;22982;42.848;25.468;2023-04-06T06:33:16;95682.53;;;4.83;76.90
37068;BME280;22982;42.848;25.468;2023-04-06T06:38:33;95757.66;;;5.78;76.17
37068;BME280;22982;42.848;25.468;2023-04-06T06:43:43;95728.34;;;6.26;72.24
37068;BME280;22982;42.848;25.468;2023-04-06T06:48:48;95744.03;;;6.25;72.20
37068;BME280;22982;42.848;25.468;2023-04-06T06:53:54;95763.47;;;5.65;72.76
37068;BME280;22982;42.848;25.468;2023-04-06T06:59:11;95739.69;;;5.90;71.70
37068;BME280;22982;42.848;25.468;2023-04-06T07:04:17;95759.50;;;5.75;72.04
37068;BME280;22982;42.848;25.468;2023-04-06T07:09:36;95736.28;;;4.99;71.36
37068;BME280;22982;42.848;25.468;2023-04-06T07:14:45;95710.16;;;5.03;74.09
37068;BME280;22982;42.848;25.468;2023-04-06T07:20:07;95764.56;;;5.96;71.16
37068;BME280;22982;42.848;25.468;2023-04-06T07:25:27;95701.72;;;5.86;68.32
37068;BME280;22982;42.848;25.468;2023-04-06T07:30:34;95738.56;;;5.96;70.33
37068;BME280;22982;42.848;25.468;2023-04-06T07:35:46;95754.91;;;6.82;67.10
37068;BME280;22982;42.848;25.468;2023-04-06T07:40:58;95703.81;;;6.30;67.13
37068;BME280;22982;42.848;25.468;2023-04-06T07:46:17;95739.97;;;6.86;68.16
37068;BME280;22982;42.848;25.468;2023-04-06T07:51:27;95717.66;;;6.64;66.27
37068;BME280;22982;42.848;25.468;2023-04-06T07:56:33;95740.97;;;7.31;65.69
37068;BME280;22982;42.848;25.468;2023-04-06T08:01:38;95763.00;;;6.94;65.23
37068;BME280;22982;42.848;25.468;2023-04-06T08:06:42;95745.59;;;6.94;64.11
37068;BME280;22982;42.848;25.468;2023-04-06T08:11:47;95739.06;;;5.85;68.63
37068;BME280;22982;42.848;25.468;2023-04-06T08:16:53;95738.00;;;6.24;66.71
37068;BME280;22982;42.848;25.468;2023-04-06T08:21:55;95741.00;;;6.99;64.05
37068;BME280;22982;42.848;25.468;2023-04-06T08:27:09;95718.59;;;6.63;62.16
37068;BME280;22982;42.848;25.468;2023-04-06T08:32:22;95717.78;;;6.12;65.23
37068;BME280;22982;42.848;25.468;2023-04-06T08:37:54;95759.91;;;7.03;63.99
37068;BME280;22982;42.848;25.468;2023-04-06T08:43:09;95717.03;;;7.08;61.07
37068;BME280;22982;42.848;25.468;2023-04-06T08:48:18;95733.03;;;7.48;60.46
37068;BME280;22982;42.848;25.468;2023-04-06T08:53:25;95730.31;;;7.20;61.26
37068;BME280;22982;42.848;25.468;2023-04-06T08:58:40;95735.56;;;7.50;60.16
37068;BME280;22982;42.848;25.468;2023-04-06T09:03:49;95748.22;;;8.02;59.23
37068;BME280;22982;42.848;25.468;2023-04-06T09:08:58;95712.13;;;8.09;57.82
37068;BME280;22982;42.848;25.468;2023-04-06T09:14:04;95684.97;;;8.56;58.74
37068;BME280;22982;42.848;25.468;2023-04-06T09:19:13;95685.09;;;9.24;54.71
37068;BME280;22982;42.848;25.468;2023-04-06T09:24:18;95702.25;;;9.00;54.61
37068;BME280;22982;42.848;25.468;2023-04-06T09:30:02;95683.94;;;8.45;53.86
37068;BME280;22982;42.848;25.468;2023-04-06T09:35:19;95677.38;;;9.08;53.60
37068;BME280;22982;42.848;25.468;2023-04-06T09:40:32;95690.63;;;8.77;52.41
37068;BME280;22982;42.848;25.468;2023-04-06T09:46:03;95651.91;;;8.55;54.87
37068;BME280;22982;42.848;25.468;2023-04-06T09:51:11;95700.78;;;8.39;55.61
37068;BME280;22982;42.848;25.468;2023-04-06T09:56:29;95681.59;;;8.96;56.97
37068;BME280;22982;42.848;25.468;2023-04-06T10:01:41;95705.81;;;9.27;55.54
37068;BME280;22982;42.848;25.468;2023-04-06T10:06:46;95677.63;;;8.33;55.21
37068;BME280;22982;42.848;25.468;2023-04-06T10:12:10;95704.59;;;9.05;54.33
37068;BME280;22982;42.848;25.468;2023-04-06T10:17:21;95662.72;;;8.20;65.34
37068;BME280;22982;42.848;25.468;2023-04-06T10:22:52;95664.75;;;9.14;54.59
37068;BME280;22982;42.848;25.468;2023-04-06T10:28:19;95664.38;;;8.79;54.61
37068;BME280;22982;42.848;25.468;2023-04-06T10:33:30;95691.56;;;9.18;59.53
37068;BME280;22982;42.848;25.468;2023-04-06T10:38:35;95671.66;;;9.43;53.77
37068;BME280;22982;42.848;25.468;2023-04-06T10:43:57;95687.81;;;8.80;51.92
37068;BME280;22982;42.848;25.468;2023-04-06T10:49:10;95693.69;;;9.26;60.51
37068;BME280;22982;42.848;25.468;2023-04-06T10:54:30;95627.69;;;9.48;49.72
37068;BME280;22982;42.848;25.468;2023-04-06T10:59:44;95660.38;;;9.15;51.29
37068;BME280;22982;42.848;25.468;2023-04-06T11:05:01;95649.72;;;9.18;52.36
37068;BME280;22982;42.848;25.468;2023-04-06T11:10:27;95636.25;;;10.03;48.85
37068;BME280;22982;42.848;25.468;2023-04-06T11:15:37;95633.16;;;11.21;45.59
37068;BME280;22982;42.848;25.468;2023-04-06T11:20:48;95623.31;;;11.36;46.10
37068;BME280;22982;42.848;25.468;2023-04-06T11:26:29;95660.47;;;10.32;47.01
37068;BME280;22982;42.848;25.468;2023-04-06T11:32:02;95572.50;;;10.53;46.69
37068;BME280;22982;42.848;25.468;2023-04-06T11:37:19;95643.47;;;10.87;46.06
37068;BME280;22982;42.848;25.468;2023-04-06T11:42:35;95636.94;;;11.06;44.89
37068;BME280;22982;42.848;25.468;2023-04-06T11:47:40;95634.88;;;10.48;45.52
37068;BME280;22982;42.848;25.468;2023-04-06T11:58:43;95634.66;;;10.88;44.16
37068;BME280;22982;42.848;25.468;2023-04-06T12:03:46;95612.03;;;11.47;45.37
37068;BME280;22982;42.848;25.468;2023-04-06T12:09:02;95592.38;;;11.17;42.39
37068;BME280;22982;42.848;25.468;2023-04-06T12:14:06;95610.97;;;11.38;43.11
37068;BME280;22982;42.848;25.468;2023-04-06T12:19:13;95626.03;;;10.99;44.33
37068;BME280;22982;42.848;25.468;2023-04-06T12:24:38;95631.00;;;10.28;45.57
37068;BME280;22982;42.848;25.468;2023-04-06T12:29:44;95613.06;;;10.09;45.67
37068;BME280;22982;42.848;25.468;2023-04-06T12:34:54;95629.53;;;10.11;46.12
37068;BME280;22982;42.848;25.468;2023-04-06T12:40:01;95638.75;;;10.17;45.94
37068;BME280;22982;42.848;25.468;2023-04-06T12:45:09;95627.78;;;9.06;46.77
37068;BME280;22982;42.848;25.468;2023-04-06T12:50:22;95631.47;;;9.04;47.54
37068;BME280;22982;42.848;25.468;2023-04-06T12:55:31;95628.47;;;8.95;47.86
37068;BME280;22982;42.848;25.468;2023-04-06T13:01:07;95596.81;;;8.73;49.25
37068;BME280;22982;42.848;25.468;2023-04-06T13:06:26;95604.34;;;8.77;48.20
37068;BME280;22982;42.848;25.468;2023-04-06T13:11:46;95602.16;;;8.98;47.90
37068;BME280;22982;42.848;25.468;2023-04-06T13:17:12;95610.72;;;9.00;46.55
37068;BME280;22982;42.848;25.468;2023-04-06T13:22:17;95623.94;;;9.12;47.19
37068;BME280;22982;42.848;25.468;2023-04-06T13:27:32;95633.66;;;9.10;47.18
37068;BME280;22982;42.848;25.468;2023-04-06T13:33:10;95591.72;;;9.11;47.27
37068;BME280;22982;42.848;25.468;2023-04-06T13:38:25;95619.78;;;9.62;45.63
37068;BME280;22982;42.848;25.468;2023-04-06T13:43:36;95592.88;;;8.80;46.59
37068;BME280;22982;42.848;25.468;2023-04-06T13:48:52;95552.16;;;8.76;47.30
37068;BME280;22982;42.848;25.468;2023-04-06T13:54:20;95629.75;;;9.03;46.79
37068;BME280;22982;42.848;25.468;2023-04-06T13:59:24;95578.47;;;8.87;47.10
37068;BME280;22982;42.848;25.468;2023-04-06T14:04:32;95627.78;;;8.79;47.83
37068;BME280;22982;42.848;25.468;2023-04-06T14:09:36;95597.78;;;8.57;49.33
37068;BME280;22982;42.848;25.468;2023-04-06T14:14:40;95598.75;;;8.84;48.02
37068;BME280;22982;42.848;25.468;2023-04-06T14:19:43;95585.84;;;8.53;48.54
37068;BME280;22982;42.848;25.468;2023-04-06T14:24:45;95583.88;;;8.57;48.52
37068;BME280;22982;42.848;25.468;2023-04-06T14:29:52;95587.69;;;8.66;48.19
37068;BME280;22982;42.848;25.468;2023-04-06T14:34:59;95596.88;;;8.86;48.69
37068;BME280;22982;42.848;25.468;2023-04-06T14:40:11;95607.00;;;9.17;46.84
37068;BME280;22982;42.848;25.468;2023-04-06T14:45:21;95563.25;;;9.07;46.27
37068;BME280;22982;42.848;25.468;2023-04-06T14:50:36;95583.97;;;9.10;46.22
37068;BME280;22982;42.848;25.468;2023-04-06T14:55:44;95576.06;;;9.24;46.02
37068;BME280;22982;42.848;25.468;2023-04-06T15:01:07;95546.78;;;9.45;45.43
37068;BME280;22982;42.848;25.468;2023-04-06T15:06:30;95569.81;;;8.99;46.35
37068;BME280;22982;42.848;25.468;2023-04-06T15:11:36;95592.31;;;9.02;45.97
37068;BME280;22982;42.848;25.468;2023-04-06T15:16:38;95592.25;;;8.76;45.93
37068;BME280;22982;42.848;25.468;2023-04-06T15:22:00;95619.50;;;8.99;45.88
37068;BME280;22982;42.848;25.468;2023-04-06T15:27:11;95588.16;;;8.58;47.62
37068;BME280;22982;42.848;25.468;2023-04-06T15:32:15;95590.63;;;8.74;46.33
37068;BME280;22982;42.848;25.468;2023-04-06T15:37:18;95613.38;;;8.45;48.04
37068;BME280;22982;42.848;25.468;2023-04-06T15:42:24;95612.63;;;8.28;48.38
37068;BME280;22982;42.848;25.468;2023-04-06T15:47:31;95617.56;;;8.33;48.40
37068;BME280;22982;42.848;25.468;2023-04-06T15:52:56;95628.88;;;8.19;48.43
37068;BME280;22982;42.848;25.468;2023-04-06T15:58:06;95604.72;;;7.86;48.71
37068;BME280;22982;42.848;25.468;2023-04-06T16:03:13;95639.50;;;8.01;49.38
37068;BME280;22982;42.848;25.468;2023-04-06T16:08:27;95595.09;;;7.87;49.12
37068;BME280;22982;42.848;25.468;2023-04-06T16:13:42;95626.50;;;7.71;49.98
37068;BME280;22982;42.848;25.468;2023-04-06T16:19:02;95654.53;;;7.67;50.76
37068;BME280;22982;42.848;25.468;2023-04-06T16:24:04;95678.69;;;7.71;51.11
37068;BME280;22982;42.848;25.468;2023-04-06T16:29:17;95613.34;;;7.14;51.46
37068;BME280;22982;42.848;25.468;2023-04-06T16:34:30;95660.53;;;7.39;51.48
37068;BME280;22982;42.848;25.468;2023-04-06T16:39:41;95702.41;;;7.52;51.12
37068;BME280;22982;42.848;25.468;2023-04-06T16:44:56;95667.31;;;7.12;51.48
37068;BME280;22982;42.848;25.468;2023-04-06T16:50:01;95677.56;;;7.15;50.89
37068;BME280;22982;42.848;25.468;2023-04-06T16:55:19;95710.91;;;7.40;51.56
37068;BME280;22982;42.848;25.468;2023-04-06T17:00:32;95651.88;;;6.77;52.78
37068;BME280;22982;42.848;25.468;2023-04-06T17:05:42;95674.38;;;6.94;54.26
37068;BME280;22982;42.848;25.468;2023-04-06T17:11:20;95698.44;;;6.99;52.33
37068;BME280;22982;42.848;25.468;2023-04-06T17:16:36;95695.91;;;6.97;53.05
37068;BME280;22982;42.848;25.468;2023-04-06T17:21:42;95715.31;;;7.07;51.89
37068;BME280;22982;42.848;25.468;2023-04-06T17:26:52;95750.31;;;7.03;52.47
37068;BME280;22982;42.848;25.468;2023-04-06T17:32:10;95743.50;;;6.85;52.31
37068;BME280;22982;42.848;25.468;2023-04-06T17:37:22;95733.66;;;6.41;52.49
37068;BME280;22982;42.848;25.468;2023-04-06T17:42:34;95799.72;;;6.73;53.51
37068;BME280;22982;42.848;25.468;2023-04-06T17:47:40;95781.31;;;6.43;53.06
37068;BME280;22982;42.848;25.468;2023-04-06T17:52:52;95788.38;;;6.23;53.84
37068;BME280;22982;42.848;25.468;2023-04-06T17:58:08;95763.44;;;6.02;55.14
37068;BME280;22982;42.848;25.468;2023-04-06T18:03:13;95851.78;;;6.40;54.90
37068;BME280;22982;42.848;25.468;2023-04-06T18:08:17;95804.66;;;5.92;54.46
37068;BME280;22982;42.848;25.468;2023-04-06T18:13:34;95818.94;;;6.02;54.63
37068;BME280;22982;42.848;25.468;2023-04-06T18:18:43;95835.78;;;5.76;52.77
37068;BME280;22982;42.848;25.468;2023-04-06T18:23:46;95868.81;;;5.74;52.09
37068;BME280;22982;42.848;25.468;2023-04-06T18:28:56;95827.75;;;5.44;52.63
37068;BME280;22982;42.848;25.468;2023-04-06T18:34:09;95802.34;;;5.32;52.99
37068;BME280;22982;42.848;25.468;2023-04-06T19:05:12;95855.31;;;5.10;54.34
37068;BME280;22982;42.848;25.468;2023-04-06T19:11:04;95879.56;;;5.30;55.03
37068;BME280;22982;42.848;25.468;2023-04-06T19:16:55;95922.69;;;5.72;54.68
37068;BME280;22982;42.848;25.468;2023-04-06T19:41:08;95851.47;;;5.19;53.42
37068;BME280;22982;42.848;25.468;2023-04-06T19:46:27;95935.22;;;5.45;53.99
37068;BME280;22982;42.848;25.468;2023-04-06T19:52:24;95889.19;;;5.28;55.27
37068;BME280;22982;42.848;25.468;2023-04-06T19:58:26;95869.13;;;4.92;54.21
37068;BME280;22982;42.848;25.468;2023-04-06T20:04:50;95942.53;;;5.55;53.73
37068;BME280;22982;42.848;25.468;2023-04-06T20:10:45;95899.50;;;5.10;54.62
37068;BME280;22982;42.848;25.468;2023-04-06T20:16:44;95870.41;;;5.02;53.49
37068;BME280;22982;42.848;25.468;2023-04-06T20:22:41;95864.66;;;4.95;52.64
37068;BME280;22982;42.848;25.468;2023-04-06T20:28:12;95951.88;;;5.41;53.51
37068;BME280;22982;42.848;25.468;2023-04-06T20:34:19;95925.72;;;5.25;53.91
37068;BME280;22982;42.848;25.468;2023-04-06T20:40:29;95950.41;;;5.35;54.51
37068;BME280;22982;42.848;25.468;2023-04-06T20:46:19;95917.84;;;5.26;54.83
37068;BME280;22982;42.848;25.468;2023-04-06T20:52:39;95952.09;;;5.55;55.13
37068;BME280;22982;42.848;25.468;2023-04-06T21:05:11;95871.44;;;4.98;56.13
37068;BME280;22982;42.848;25.468;2023-04-06T21:10:23;95912.84;;;5.22;57.86
37068;BME280;22982;42.848;25.468;2023-04-06T21:16:32;95879.34;;;4.76;57.11
37068;BME280;22982;42.848;25.468;2023-04-06T21:22:03;95957.97;;;5.21;54.38
37068;BME280;22982;42.848;25.468;2023-04-06T21:27:11;95919.75;;;5.02;54.42
37068;BME280;22982;42.848;25.468;2023-04-06T21:33:11;95942.78;;;5.11;56.23
37068;BME280;22982;42.848;25.468;2023-04-06T21:39:09;95876.28;;;4.87;58.25
37068;BME280;22982;42.848;25.468;2023-04-06T21:44:49;95881.81;;;4.58;59.01
37068;BME280;22982;42.848;25.468;2023-04-06T21:56:44;95946.38;;;4.88;56.21
37068;BME280;22982;42.848;25.468;2023-04-06T22:03:04;95894.09;;;4.34;56.73
37068;BME280;22982;42.848;25.468;2023-04-06T22:08:38;95894.31;;;4.50;55.69
37068;BME280;22982;42.848;25.468;2023-04-06T22:14:43;95879.88;;;4.64;56.91
37068;BME280;22982;42.848;25.468;2023-04-06T22:20:42;95878.00;;;4.47;59.12
37068;BME280;22982;42.848;25.468;2023-04-06T22:33:02;95963.78;;;4.86;60.22
37068;BME280;22982;42.848;25.468;2023-04-06T22:38:50;95870.06;;;4.50;61.19
37068;BME280;22982;42.848;25.468;2023-04-06T22:44:49;95959.84;;;4.96;63.92
37068;BME280;22982;42.848;25.468;2023-04-06T22:50:51;95892.03;;;4.63;62.21
37068;BME280;22982;42.848;25.468;2023-04-06T22:56:06;95919.56;;;4.47;65.78
37068;BME280;22982;42.848;25.468;2023-04-06T23:08:05;95878.38;;;4.17;68.37
37068;BME280;22982;42.848;25.468;2023-04-06T23:15:17;95870.56;;;3.96;65.96
37068;BME280;22982;42.848;25.468;2023-04-06T23:21:18;95960.75;;;4.34;61.44
37068;BME280;22982;42.848;25.468;2023-04-06T23:34:21;95896.91;;;4.08;55.43
37068;BME280;22982;42.848;25.468;2023-04-06T23:39:32;95902.50;;;4.19;54.42
37068;BME280;22982;42.848;25.468;2023-04-06T23:45:21;95963.47;;;4.73;54.91
37068;BME280;22982;42.848;25.468;2023-04-06T23:57:24;95868.78;;;4.19;54.96
